sensor_id;sensor_type;location;lat;lon;timestamp;P1;durP1;ratioP1;P2;durP2;ratioP2
24897;SDS011;12957;49.434;8.684;2023-08-01T00:00:41;10.75;;;5.82;;
24897;SDS011;12957;49.434;8.684;2023-08-01T00:03:06;13.05;;;5.50;;
24897;SDS011;12957;49.434;8.684;2023-08-01T00:05:32;14.27;;;6.18;;
24897;SDS011;12957;49.434;8.684;2023-08-01T00:07:57;19.10;;;6.68;;
24897;SDS011;12957;49.434;8.684;2023-08-01T00:10:23;14.85;;;6.22;;
24897;SDS011;12957;49.434;8.684;2023-08-01T00:12:49;13.07;;;5.88;;
24897;SDS011;12957;49.434;8.684;2023-08-01T00:15:14;16.90;;;6.22;;
24897;SDS011;12957;49.434;8.684;2023-08-01T00:17:40;14.93;;;6.32;;
24897;SDS011;12957;49.434;8.684;2023-08-01T00:20:06;17.98;;;6.75;;
24897;SDS011;12957;49.434;8.684;2023-08-01T00:22:31;15.82;;;6.45;;
24897;SDS011;12957;49.434;8.684;2023-08-01T00:24:57;19.08;;;6.60;;
24897;SDS011;12957;49.434;8.684;2023-08-01T00:27:23;19.30;;;7.03;;
24897;SDS011;12957;49.434;8.684;2023-08-01T00:29:49;13.98;;;6.75;;
24897;SDS011;12957;49.434;8.684;2023-08-01T00:32:14;12.18;;;6.78;;
24897;SDS011;12957;49.434;8.684;2023-08-01T00:34:40;16.85;;;6.47;;
24897;SDS011;12957;49.434;8.684;2023-08-01T00:37:06;16.40;;;7.35;;
24897;SDS011;12957;49.434;8.684;2023-08-01T00:39:31;14.10;;;7.20;;
24897;SDS011;12957;49.434;8.684;2023-08-01T00:41:57;19.60;;;6.80;;
24897;SDS011;12957;49.434;8.684;2023-08-01T00:44:22;16.15;;;7.00;;
24897;SDS011;12957;49.434;8.684;2023-08-01T00:46:48;17.23;;;6.95;;
24897;SDS011;12957;49.434;8.684;2023-08-01T00:49:39;15.90;;;7.32;;
24897;SDS011;12957;49.434;8.684;2023-08-01T00:52:08;17.15;;;6.82;;
24897;SDS011;12957;49.434;8.684;2023-08-01T00:54:34;17.88;;;7.00;;
24897;SDS011;12957;49.434;8.684;2023-08-01T00:57:04;17.20;;;6.80;;
24897;SDS011;12957;49.434;8.684;2023-08-01T00:59:30;20.13;;;7.45;;
24897;SDS011;12957;49.434;8.684;2023-08-01T01:01:56;14.55;;;7.00;;
24897;SDS011;12957;49.434;8.684;2023-08-01T01:04:21;13.50;;;7.28;;
24897;SDS011;12957;49.434;8.684;2023-08-01T01:06:49;12.93;;;6.80;;
24897;SDS011;12957;49.434;8.684;2023-08-01T01:09:17;16.58;;;7.15;;
24897;SDS011;12957;49.434;8.684;2023-08-01T01:11:43;10.40;;;6.45;;
24897;SDS011;12957;49.434;8.684;2023-08-01T01:14:09;11.75;;;6.57;;
24897;SDS011;12957;49.434;8.684;2023-08-01T01:16:34;15.68;;;6.43;;
24897;SDS011;12957;49.434;8.684;2023-08-01T01:19:00;12.90;;;6.28;;
24897;SDS011;12957;49.434;8.684;2023-08-01T01:21:25;15.82;;;6.82;;
24897;SDS011;12957;49.434;8.684;2023-08-01T01:24:16;15.38;;;6.32;;
24897;SDS011;12957;49.434;8.684;2023-08-01T01:26:43;13.15;;;6.18;;
24897;SDS011;12957;49.434;8.684;2023-08-01T01:29:10;13.15;;;6.18;;
24897;SDS011;12957;49.434;8.684;2023-08-01T01:31:36;17.45;;;6.40;;
24897;SDS011;12957;49.434;8.684;2023-08-01T01:34:02;12.93;;;6.18;;
24897;SDS011;12957;49.434;8.684;2023-08-01T01:36:28;19.95;;;7.45;;
24897;SDS011;12957;49.434;8.684;2023-08-01T01:38:54;13.25;;;6.13;;
24897;SDS011;12957;49.434;8.684;2023-08-01T01:41:21;9.75;;;5.90;;
24897;SDS011;12957;49.434;8.684;2023-08-01T01:43:47;12.15;;;6.35;;
24897;SDS011;12957;49.434;8.684;2023-08-01T01:46:13;20.02;;;6.38;;
24897;SDS011;12957;49.434;8.684;2023-08-01T01:48:38;15.98;;;6.97;;
24897;SDS011;12957;49.434;8.684;2023-08-01T01:51:04;12.85;;;6.70;;
24897;SDS011;12957;49.434;8.684;2023-08-01T01:53:29;11.27;;;6.03;;
24897;SDS011;12957;49.434;8.684;2023-08-01T01:55:55;15.55;;;6.40;;
24897;SDS011;12957;49.434;8.684;2023-08-01T01:58:20;12.20;;;5.78;;
24897;SDS011;12957;49.434;8.684;2023-08-01T02:00:46;12.55;;;6.15;;
24897;SDS011;12957;49.434;8.684;2023-08-01T02:03:11;13.75;;;6.82;;
24897;SDS011;12957;49.434;8.684;2023-08-01T02:05:39;22.65;;;7.00;;
24897;SDS011;12957;49.434;8.684;2023-08-01T02:08:05;11.57;;;6.47;;
24897;SDS011;12957;49.434;8.684;2023-08-01T02:10:30;13.52;;;6.63;;
24897;SDS011;12957;49.434;8.684;2023-08-01T02:12:56;12.98;;;7.22;;
24897;SDS011;12957;49.434;8.684;2023-08-01T02:15:21;16.20;;;6.72;;
24897;SDS011;12957;49.434;8.684;2023-08-01T02:17:47;13.52;;;6.55;;
24897;SDS011;12957;49.434;8.684;2023-08-01T02:20:12;11.50;;;6.60;;
24897;SDS011;12957;49.434;8.684;2023-08-01T02:22:38;14.85;;;7.05;;
24897;SDS011;12957;49.434;8.684;2023-08-01T02:25:04;14.95;;;7.28;;
24897;SDS011;12957;49.434;8.684;2023-08-01T02:27:30;18.67;;;8.15;;
24897;SDS011;12957;49.434;8.684;2023-08-01T02:29:56;13.95;;;7.00;;
24897;SDS011;12957;49.434;8.684;2023-08-01T02:32:22;14.80;;;6.57;;
24897;SDS011;12957;49.434;8.684;2023-08-01T02:34:47;15.80;;;6.57;;
24897;SDS011;12957;49.434;8.684;2023-08-01T02:37:13;14.60;;;7.10;;
24897;SDS011;12957;49.434;8.684;2023-08-01T02:39:41;15.20;;;6.75;;
24897;SDS011;12957;49.434;8.684;2023-08-01T02:42:07;16.38;;;7.47;;
24897;SDS011;12957;49.434;8.684;2023-08-01T02:44:33;13.27;;;7.22;;
24897;SDS011;12957;49.434;8.684;2023-08-01T02:46:59;16.65;;;6.53;;
24897;SDS011;12957;49.434;8.684;2023-08-01T02:49:26;15.63;;;7.20;;
24897;SDS011;12957;49.434;8.684;2023-08-01T02:51:52;16.17;;;7.13;;
24897;SDS011;12957;49.434;8.684;2023-08-01T02:54:17;17.80;;;7.18;;
24897;SDS011;12957;49.434;8.684;2023-08-01T02:56:43;20.52;;;7.50;;
24897;SDS011;12957;49.434;8.684;2023-08-01T02:59:08;15.27;;;7.35;;
24897;SDS011;12957;49.434;8.684;2023-08-01T03:01:34;20.27;;;6.97;;
24897;SDS011;12957;49.434;8.684;2023-08-01T03:04:04;15.15;;;7.53;;
24897;SDS011;12957;49.434;8.684;2023-08-01T03:06:33;14.32;;;7.70;;
24897;SDS011;12957;49.434;8.684;2023-08-01T03:08:59;19.42;;;8.23;;
24897;SDS011;12957;49.434;8.684;2023-08-01T03:11:24;18.13;;;7.18;;
24897;SDS011;12957;49.434;8.684;2023-08-01T03:13:51;13.25;;;7.38;;
24897;SDS011;12957;49.434;8.684;2023-08-01T03:16:16;19.25;;;8.07;;
24897;SDS011;12957;49.434;8.684;2023-08-01T03:18:42;15.68;;;7.13;;
24897;SDS011;12957;49.434;8.684;2023-08-01T03:21:08;17.95;;;7.38;;
24897;SDS011;12957;49.434;8.684;2023-08-01T03:23:33;19.38;;;7.97;;
24897;SDS011;12957;49.434;8.684;2023-08-01T03:25:59;17.38;;;7.68;;
24897;SDS011;12957;49.434;8.684;2023-08-01T03:28:25;16.67;;;7.20;;
24897;SDS011;12957;49.434;8.684;2023-08-01T03:30:51;16.60;;;7.38;;
24897;SDS011;12957;49.434;8.684;2023-08-01T03:33:18;18.10;;;7.63;;
24897;SDS011;12957;49.434;8.684;2023-08-01T03:35:47;16.95;;;7.38;;
24897;SDS011;12957;49.434;8.684;2023-08-01T03:38:12;18.40;;;8.07;;
24897;SDS011;12957;49.434;8.684;2023-08-01T03:40:38;17.42;;;7.03;;
24897;SDS011;12957;49.434;8.684;2023-08-01T03:43:03;19.15;;;6.95;;
24897;SDS011;12957;49.434;8.684;2023-08-01T03:45:30;18.38;;;7.47;;
24897;SDS011;12957;49.434;8.684;2023-08-01T03:47:55;14.82;;;6.63;;
24897;SDS011;12957;49.434;8.684;2023-08-01T03:50:21;13.00;;;6.63;;
24897;SDS011;12957;49.434;8.684;2023-08-01T03:52:46;17.08;;;6.60;;
24897;SDS011;12957;49.434;8.684;2023-08-01T03:55:12;12.13;;;6.45;;
24897;SDS011;12957;49.434;8.684;2023-08-01T03:57:37;13.05;;;6.93;;
24897;SDS011;12957;49.434;8.684;2023-08-01T04:00:05;13.20;;;6.60;;
24897;SDS011;12957;49.434;8.684;2023-08-01T04:02:31;15.98;;;7.20;;
24897;SDS011;12957;49.434;8.684;2023-08-01T04:04:56;17.25;;;6.28;;
24897;SDS011;12957;49.434;8.684;2023-08-01T04:07:22;16.42;;;7.20;;
24897;SDS011;12957;49.434;8.684;2023-08-01T04:09:48;12.73;;;6.57;;
24897;SDS011;12957;49.434;8.684;2023-08-01T04:12:13;12.95;;;6.82;;
24897;SDS011;12957;49.434;8.684;2023-08-01T04:14:41;19.42;;;6.75;;
24897;SDS011;12957;49.434;8.684;2023-08-01T04:17:07;16.70;;;7.18;;
24897;SDS011;12957;49.434;8.684;2023-08-01T04:19:33;25.98;;;7.50;;
24897;SDS011;12957;49.434;8.684;2023-08-01T04:21:58;17.92;;;6.95;;
24897;SDS011;12957;49.434;8.684;2023-08-01T04:24:24;13.55;;;6.50;;
24897;SDS011;12957;49.434;8.684;2023-08-01T04:26:50;16.60;;;7.28;;
24897;SDS011;12957;49.434;8.684;2023-08-01T04:29:16;23.92;;;7.03;;
24897;SDS011;12957;49.434;8.684;2023-08-01T04:31:43;21.35;;;7.55;;
24897;SDS011;12957;49.434;8.684;2023-08-01T04:34:08;17.48;;;6.88;;
24897;SDS011;12957;49.434;8.684;2023-08-01T04:36:34;18.73;;;6.82;;
24897;SDS011;12957;49.434;8.684;2023-08-01T04:38:59;18.52;;;7.97;;
24897;SDS011;12957;49.434;8.684;2023-08-01T04:41:25;16.58;;;6.97;;
24897;SDS011;12957;49.434;8.684;2023-08-01T04:43:51;16.10;;;7.22;;
24897;SDS011;12957;49.434;8.684;2023-08-01T04:46:17;19.33;;;7.07;;
24897;SDS011;12957;49.434;8.684;2023-08-01T04:48:42;19.00;;;8.00;;
24897;SDS011;12957;49.434;8.684;2023-08-01T04:51:08;12.77;;;6.70;;
24897;SDS011;12957;49.434;8.684;2023-08-01T04:53:33;14.82;;;6.55;;
24897;SDS011;12957;49.434;8.684;2023-08-01T04:56:00;14.27;;;7.22;;
24897;SDS011;12957;49.434;8.684;2023-08-01T04:58:27;14.73;;;6.72;;
24897;SDS011;12957;49.434;8.684;2023-08-01T05:00:54;18.52;;;7.55;;
24897;SDS011;12957;49.434;8.684;2023-08-01T05:03:19;12.43;;;6.70;;
24897;SDS011;12957;49.434;8.684;2023-08-01T05:05:44;16.38;;;6.38;;
24897;SDS011;12957;49.434;8.684;2023-08-01T05:08:10;13.88;;;6.10;;
24897;SDS011;12957;49.434;8.684;2023-08-01T05:10:35;17.30;;;6.90;;
24897;SDS011;12957;49.434;8.684;2023-08-01T05:13:01;11.95;;;5.82;;
24897;SDS011;12957;49.434;8.684;2023-08-01T05:15:27;18.00;;;6.75;;
24897;SDS011;12957;49.434;8.684;2023-08-01T05:17:53;16.05;;;6.18;;
24897;SDS011;12957;49.434;8.684;2023-08-01T05:20:19;15.38;;;6.95;;
24897;SDS011;12957;49.434;8.684;2023-08-01T05:22:44;16.15;;;7.00;;
24897;SDS011;12957;49.434;8.684;2023-08-01T05:25:10;17.08;;;6.50;;
24897;SDS011;12957;49.434;8.684;2023-08-01T05:27:35;15.68;;;6.82;;
24897;SDS011;12957;49.434;8.684;2023-08-01T05:30:01;22.40;;;6.90;;
24897;SDS011;12957;49.434;8.684;2023-08-01T05:32:26;15.70;;;6.95;;
24897;SDS011;12957;49.434;8.684;2023-08-01T05:34:53;17.98;;;6.93;;
24897;SDS011;12957;49.434;8.684;2023-08-01T05:37:18;22.02;;;7.57;;
24897;SDS011;12957;49.434;8.684;2023-08-01T05:39:44;12.32;;;6.75;;
24897;SDS011;12957;49.434;8.684;2023-08-01T05:42:09;20.02;;;7.88;;
24897;SDS011;12957;49.434;8.684;2023-08-01T05:44:35;14.27;;;6.93;;
24897;SDS011;12957;49.434;8.684;2023-08-01T05:47:03;16.27;;;7.32;;
24897;SDS011;12957;49.434;8.684;2023-08-01T05:49:28;14.57;;;7.68;;
24897;SDS011;12957;49.434;8.684;2023-08-01T05:51:55;16.38;;;7.28;;
24897;SDS011;12957;49.434;8.684;2023-08-01T05:54:20;17.77;;;6.32;;
24897;SDS011;12957;49.434;8.684;2023-08-01T05:56:46;11.27;;;6.47;;
24897;SDS011;12957;49.434;8.684;2023-08-01T05:59:11;12.13;;;6.13;;
24897;SDS011;12957;49.434;8.684;2023-08-01T06:01:37;12.55;;;6.18;;
24897;SDS011;12957;49.434;8.684;2023-08-01T06:04:02;12.52;;;6.40;;
24897;SDS011;12957;49.434;8.684;2023-08-01T06:06:28;11.20;;;6.22;;
24897;SDS011;12957;49.434;8.684;2023-08-01T06:08:53;14.77;;;6.55;;
24897;SDS011;12957;49.434;8.684;2023-08-01T06:11:19;10.77;;;6.03;;
24897;SDS011;12957;49.434;8.684;2023-08-01T06:13:44;12.20;;;6.60;;
24897;SDS011;12957;49.434;8.684;2023-08-01T06:16:12;23.05;;;7.60;;
24897;SDS011;12957;49.434;8.684;2023-08-01T06:18:37;10.50;;;6.68;;
24897;SDS011;12957;49.434;8.684;2023-08-01T06:21:03;16.27;;;7.10;;
24897;SDS011;12957;49.434;8.684;2023-08-01T06:23:28;15.45;;;6.97;;
24897;SDS011;12957;49.434;8.684;2023-08-01T06:25:54;13.32;;;6.75;;
24897;SDS011;12957;49.434;8.684;2023-08-01T06:28:19;11.82;;;6.68;;
24897;SDS011;12957;49.434;8.684;2023-08-01T06:30:45;11.77;;;6.80;;
24897;SDS011;12957;49.434;8.684;2023-08-01T06:33:11;10.70;;;6.30;;
24897;SDS011;12957;49.434;8.684;2023-08-01T06:35:36;13.48;;;6.65;;
24897;SDS011;12957;49.434;8.684;2023-08-01T06:38:05;18.40;;;7.43;;
24897;SDS011;12957;49.434;8.684;2023-08-01T06:40:31;17.20;;;6.85;;
24897;SDS011;12957;49.434;8.684;2023-08-01T06:42:57;17.92;;;7.07;;
24897;SDS011;12957;49.434;8.684;2023-08-01T06:45:22;20.00;;;7.15;;
24897;SDS011;12957;49.434;8.684;2023-08-01T06:47:48;17.83;;;7.32;;
24897;SDS011;12957;49.434;8.684;2023-08-01T06:50:13;15.30;;;7.75;;
24897;SDS011;12957;49.434;8.684;2023-08-01T06:52:39;12.98;;;7.18;;
24897;SDS011;12957;49.434;8.684;2023-08-01T06:55:04;12.52;;;6.93;;
24897;SDS011;12957;49.434;8.684;2023-08-01T06:57:30;17.73;;;7.00;;
24897;SDS011;12957;49.434;8.684;2023-08-01T06:59:56;13.32;;;7.10;;
24897;SDS011;12957;49.434;8.684;2023-08-01T07:02:21;15.98;;;7.30;;
24897;SDS011;12957;49.434;8.684;2023-08-01T07:04:47;12.77;;;6.55;;
24897;SDS011;12957;49.434;8.684;2023-08-01T07:07:12;11.90;;;6.50;;
24897;SDS011;12957;49.434;8.684;2023-08-01T07:09:38;12.90;;;6.43;;
24897;SDS011;12957;49.434;8.684;2023-08-01T07:12:04;15.70;;;6.68;;
24897;SDS011;12957;49.434;8.684;2023-08-01T07:14:30;13.02;;;6.05;;
24897;SDS011;12957;49.434;8.684;2023-08-01T07:16:55;10.13;;;5.60;;
24897;SDS011;12957;49.434;8.684;2023-08-01T07:19:21;11.85;;;5.80;;
24897;SDS011;12957;49.434;8.684;2023-08-01T07:21:47;10.15;;;5.88;;
24897;SDS011;12957;49.434;8.684;2023-08-01T07:24:14;11.02;;;5.60;;
24897;SDS011;12957;49.434;8.684;2023-08-01T07:26:40;9.40;;;5.78;;
24897;SDS011;12957;49.434;8.684;2023-08-01T07:29:05;10.05;;;4.95;;
24897;SDS011;12957;49.434;8.684;2023-08-01T07:31:33;9.13;;;5.10;;
24897;SDS011;12957;49.434;8.684;2023-08-01T07:34:00;7.32;;;5.10;;
24897;SDS011;12957;49.434;8.684;2023-08-01T07:36:26;9.15;;;4.53;;
24897;SDS011;12957;49.434;8.684;2023-08-01T07:38:52;7.15;;;4.35;;
24897;SDS011;12957;49.434;8.684;2023-08-01T07:41:18;5.57;;;4.07;;
24897;SDS011;12957;49.434;8.684;2023-08-01T07:43:43;8.85;;;4.50;;
24897;SDS011;12957;49.434;8.684;2023-08-01T07:46:09;6.15;;;4.20;;
24897;SDS011;12957;49.434;8.684;2023-08-01T07:48:36;6.38;;;4.20;;
24897;SDS011;12957;49.434;8.684;2023-08-01T07:51:02;9.73;;;4.53;;
24897;SDS011;12957;49.434;8.684;2023-08-01T07:53:30;7.53;;;3.97;;
24897;SDS011;12957;49.434;8.684;2023-08-01T07:55:55;6.72;;;3.90;;
24897;SDS011;12957;49.434;8.684;2023-08-01T07:58:21;6.68;;;3.95;;
24897;SDS011;12957;49.434;8.684;2023-08-01T08:00:46;4.20;;;3.72;;
24897;SDS011;12957;49.434;8.684;2023-08-01T08:03:12;8.85;;;4.47;;
24897;SDS011;12957;49.434;8.684;2023-08-01T08:05:38;11.07;;;4.05;;
24897;SDS011;12957;49.434;8.684;2023-08-01T08:08:04;7.18;;;4.03;;
24897;SDS011;12957;49.434;8.684;2023-08-01T08:10:30;9.98;;;3.75;;
24897;SDS011;12957;49.434;8.684;2023-08-01T08:12:55;8.90;;;4.07;;
24897;SDS011;12957;49.434;8.684;2023-08-01T08:15:21;7.07;;;3.65;;
24897;SDS011;12957;49.434;8.684;2023-08-01T08:17:49;4.13;;;3.75;;
24897;SDS011;12957;49.434;8.684;2023-08-01T08:20:15;6.68;;;3.30;;
24897;SDS011;12957;49.434;8.684;2023-08-01T08:22:40;5.57;;;3.63;;
24897;SDS011;12957;49.434;8.684;2023-08-01T08:25:06;4.85;;;3.30;;
24897;SDS011;12957;49.434;8.684;2023-08-01T08:27:33;4.13;;;3.35;;
24897;SDS011;12957;49.434;8.684;2023-08-01T08:29:58;6.53;;;3.38;;
24897;SDS011;12957;49.434;8.684;2023-08-01T08:32:24;5.40;;;3.28;;
24897;SDS011;12957;49.434;8.684;2023-08-01T08:34:49;5.78;;;3.40;;
24897;SDS011;12957;49.434;8.684;2023-08-01T08:37:14;6.00;;;3.17;;
24897;SDS011;12957;49.434;8.684;2023-08-01T08:39:40;4.88;;;3.03;;
24897;SDS011;12957;49.434;8.684;2023-08-01T08:42:05;3.10;;;2.80;;
24897;SDS011;12957;49.434;8.684;2023-08-01T08:44:31;6.50;;;3.17;;
24897;SDS011;12957;49.434;8.684;2023-08-01T08:47:02;6.20;;;3.20;;
24897;SDS011;12957;49.434;8.684;2023-08-01T08:49:29;4.20;;;3.40;;
24897;SDS011;12957;49.434;8.684;2023-08-01T08:51:54;7.57;;;3.65;;
24897;SDS011;12957;49.434;8.684;2023-08-01T08:54:20;11.63;;;3.83;;
24897;SDS011;12957;49.434;8.684;2023-08-01T08:56:46;4.90;;;3.22;;
24897;SDS011;12957;49.434;8.684;2023-08-01T08:59:11;5.15;;;3.08;;
24897;SDS011;12957;49.434;8.684;2023-08-01T09:01:37;3.75;;;2.72;;
24897;SDS011;12957;49.434;8.684;2023-08-01T09:04:04;3.92;;;2.83;;
24897;SDS011;12957;49.434;8.684;2023-08-01T09:06:31;4.00;;;2.50;;
24897;SDS011;12957;49.434;8.684;2023-08-01T09:09:04;4.10;;;2.75;;
24897;SDS011;12957;49.434;8.684;2023-08-01T09:11:44;3.08;;;2.03;;
24897;SDS011;12957;49.434;8.684;2023-08-01T09:14:12;3.38;;;1.88;;
24897;SDS011;12957;49.434;8.684;2023-08-01T09:16:39;1.70;;;1.60;;
24897;SDS011;12957;49.434;8.684;2023-08-01T09:19:05;2.20;;;1.95;;
24897;SDS011;12957;49.434;8.684;2023-08-01T09:21:32;2.38;;;2.17;;
24897;SDS011;12957;49.434;8.684;2023-08-01T09:26:39;1.60;;;1.38;;
24897;SDS011;12957;49.434;8.684;2023-08-01T09:29:05;1.38;;;1.27;;
24897;SDS011;12957;49.434;8.684;2023-08-01T09:31:35;2.08;;;1.30;;
24897;SDS011;12957;49.434;8.684;2023-08-01T09:34:02;1.10;;;1.10;;
24897;SDS011;12957;49.434;8.684;2023-08-01T09:36:31;2.83;;;1.05;;
24897;SDS011;12957;49.434;8.684;2023-08-01T09:38:58;0.95;;;0.95;;
24897;SDS011;12957;49.434;8.684;2023-08-01T09:41:24;1.08;;;1.00;;
24897;SDS011;12957;49.434;8.684;2023-08-01T09:43:50;2.42;;;1.10;;
24897;SDS011;12957;49.434;8.684;2023-08-01T09:46:16;1.02;;;1.02;;
24897;SDS011;12957;49.434;8.684;2023-08-01T09:48:41;0.95;;;0.95;;
24897;SDS011;12957;49.434;8.684;2023-08-01T09:53:35;0.98;;;0.90;;
24897;SDS011;12957;49.434;8.684;2023-08-01T09:56:01;1.40;;;0.82;;
24897;SDS011;12957;49.434;8.684;2023-08-01T09:58:32;0.80;;;0.80;;
24897;SDS011;12957;49.434;8.684;2023-08-01T10:00:59;1.05;;;1.00;;
24897;SDS011;12957;49.434;8.684;2023-08-01T10:03:26;1.17;;;0.90;;
24897;SDS011;12957;49.434;8.684;2023-08-01T10:05:55;2.30;;;0.85;;
24897;SDS011;12957;49.434;8.684;2023-08-01T10:08:21;1.13;;;1.00;;
24897;SDS011;12957;49.434;8.684;2023-08-01T10:10:47;2.17;;;1.00;;
24897;SDS011;12957;49.434;8.684;2023-08-01T10:13:13;1.60;;;0.95;;
24897;SDS011;12957;49.434;8.684;2023-08-01T10:15:39;1.25;;;1.05;;
24897;SDS011;12957;49.434;8.684;2023-08-01T10:18:05;0.90;;;0.90;;
24897;SDS011;12957;49.434;8.684;2023-08-01T10:20:31;1.65;;;1.00;;
24897;SDS011;12957;49.434;8.684;2023-08-01T10:22:58;1.35;;;1.08;;
24897;SDS011;12957;49.434;8.684;2023-08-01T10:25:25;1.20;;;1.10;;
24897;SDS011;12957;49.434;8.684;2023-08-01T10:28:01;0.70;;;0.70;;
24897;SDS011;12957;49.434;8.684;2023-08-01T10:30:28;0.65;;;0.65;;
24897;SDS011;12957;49.434;8.684;2023-08-01T10:32:57;0.85;;;0.85;;
24897;SDS011;12957;49.434;8.684;2023-08-01T10:38:05;0.98;;;0.98;;
24897;SDS011;12957;49.434;8.684;2023-08-01T10:40:35;1.02;;;0.93;;
24897;SDS011;12957;49.434;8.684;2023-08-01T10:43:01;1.17;;;0.95;;
24897;SDS011;12957;49.434;8.684;2023-08-01T10:45:26;1.17;;;0.98;;
24897;SDS011;12957;49.434;8.684;2023-08-01T10:47:53;1.15;;;1.10;;
24897;SDS011;12957;49.434;8.684;2023-08-01T10:50:19;1.20;;;1.15;;
24897;SDS011;12957;49.434;8.684;2023-08-01T10:52:45;3.55;;;1.33;;
24897;SDS011;12957;49.434;8.684;2023-08-01T10:55:11;1.20;;;0.98;;
24897;SDS011;12957;49.434;8.684;2023-08-01T10:57:46;1.38;;;1.10;;
24897;SDS011;12957;49.434;8.684;2023-08-01T11:00:15;1.77;;;1.20;;
24897;SDS011;12957;49.434;8.684;2023-08-01T11:02:42;2.33;;;1.52;;
24897;SDS011;12957;49.434;8.684;2023-08-01T11:05:11;0.98;;;0.95;;
24897;SDS011;12957;49.434;8.684;2023-08-01T11:07:37;1.45;;;1.08;;
24897;SDS011;12957;49.434;8.684;2023-08-01T11:10:03;1.05;;;1.00;;
24897;SDS011;12957;49.434;8.684;2023-08-01T11:12:30;1.25;;;1.15;;
24897;SDS011;12957;49.434;8.684;2023-08-01T11:14:59;1.77;;;1.35;;
24897;SDS011;12957;49.434;8.684;2023-08-01T11:17:25;2.80;;;1.05;;
24897;SDS011;12957;49.434;8.684;2023-08-01T11:19:50;1.30;;;1.30;;
24897;SDS011;12957;49.434;8.684;2023-08-01T11:22:15;1.38;;;1.10;;
24897;SDS011;12957;49.434;8.684;2023-08-01T11:24:41;2.17;;;1.20;;
24897;SDS011;12957;49.434;8.684;2023-08-01T11:27:14;1.10;;;1.10;;
24897;SDS011;12957;49.434;8.684;2023-08-01T11:29:40;2.78;;;1.02;;
24897;SDS011;12957;49.434;8.684;2023-08-01T11:32:06;2.55;;;1.13;;
24897;SDS011;12957;49.434;8.684;2023-08-01T11:34:39;3.70;;;1.20;;
24897;SDS011;12957;49.434;8.684;2023-08-01T11:37:06;1.10;;;1.10;;
24897;SDS011;12957;49.434;8.684;2023-08-01T11:39:32;2.63;;;1.02;;
24897;SDS011;12957;49.434;8.684;2023-08-01T11:41:58;2.80;;;1.10;;
24897;SDS011;12957;49.434;8.684;2023-08-01T11:44:24;1.88;;;1.08;;
24897;SDS011;12957;49.434;8.684;2023-08-01T11:46:49;7.03;;;1.00;;
24897;SDS011;12957;49.434;8.684;2023-08-01T11:49:15;1.75;;;1.25;;
24897;SDS011;12957;49.434;8.684;2023-08-01T11:51:41;1.13;;;1.00;;
24897;SDS011;12957;49.434;8.684;2023-08-01T11:54:09;4.25;;;1.17;;
24897;SDS011;12957;49.434;8.684;2023-08-01T11:56:36;1.85;;;1.00;;
24897;SDS011;12957;49.434;8.684;2023-08-01T12:01:38;1.52;;;1.13;;
24897;SDS011;12957;49.434;8.684;2023-08-01T12:04:06;1.02;;;1.02;;
24897;SDS011;12957;49.434;8.684;2023-08-01T12:06:32;1.70;;;1.10;;
24897;SDS011;12957;49.434;8.684;2023-08-01T12:09:05;1.88;;;1.20;;
24897;SDS011;12957;49.434;8.684;2023-08-01T12:11:35;2.70;;;1.50;;
24897;SDS011;12957;49.434;8.684;2023-08-01T12:14:01;1.58;;;1.15;;
24897;SDS011;12957;49.434;8.684;2023-08-01T12:16:28;1.50;;;1.30;;
24897;SDS011;12957;49.434;8.684;2023-08-01T12:18:53;1.77;;;1.33;;
24897;SDS011;12957;49.434;8.684;2023-08-01T12:21:19;1.45;;;1.23;;
24897;SDS011;12957;49.434;8.684;2023-08-01T12:23:44;2.53;;;1.35;;
24897;SDS011;12957;49.434;8.684;2023-08-01T12:26:10;1.50;;;1.40;;
24897;SDS011;12957;49.434;8.684;2023-08-01T12:28:36;1.45;;;1.35;;
24897;SDS011;12957;49.434;8.684;2023-08-01T12:31:01;3.65;;;1.40;;
24897;SDS011;12957;49.434;8.684;2023-08-01T12:33:27;1.48;;;1.38;;
24897;SDS011;12957;49.434;8.684;2023-08-01T12:35:52;1.63;;;1.30;;
24897;SDS011;12957;49.434;8.684;2023-08-01T12:38:18;2.63;;;1.40;;
24897;SDS011;12957;49.434;8.684;2023-08-01T12:40:43;1.52;;;1.30;;
24897;SDS011;12957;49.434;8.684;2023-08-01T12:43:09;1.83;;;1.40;;
24897;SDS011;12957;49.434;8.684;2023-08-01T12:45:34;1.15;;;1.10;;
24897;SDS011;12957;49.434;8.684;2023-08-01T12:48:01;1.30;;;1.20;;
24897;SDS011;12957;49.434;8.684;2023-08-01T12:50:27;2.55;;;1.50;;
24897;SDS011;12957;49.434;8.684;2023-08-01T12:52:53;4.15;;;1.45;;
24897;SDS011;12957;49.434;8.684;2023-08-01T12:55:18;1.52;;;1.33;;
24897;SDS011;12957;49.434;8.684;2023-08-01T12:57:44;2.45;;;1.40;;
24897;SDS011;12957;49.434;8.684;2023-08-01T13:00:10;1.70;;;1.40;;
24897;SDS011;12957;49.434;8.684;2023-08-01T13:02:37;4.00;;;1.60;;
24897;SDS011;12957;49.434;8.684;2023-08-01T13:05:04;1.52;;;1.40;;
24897;SDS011;12957;49.434;8.684;2023-08-01T13:07:29;1.33;;;1.23;;
24897;SDS011;12957;49.434;8.684;2023-08-01T13:09:57;4.18;;;1.80;;
24897;SDS011;12957;49.434;8.684;2023-08-01T13:12:23;5.07;;;1.60;;
24897;SDS011;12957;49.434;8.684;2023-08-01T13:14:50;3.60;;;1.52;;
24897;SDS011;12957;49.434;8.684;2023-08-01T13:17:16;3.63;;;1.40;;
24897;SDS011;12957;49.434;8.684;2023-08-01T13:19:41;1.50;;;1.40;;
24897;SDS011;12957;49.434;8.684;2023-08-01T13:22:07;2.40;;;1.65;;
24897;SDS011;12957;49.434;8.684;2023-08-01T13:24:32;2.08;;;1.70;;
24897;SDS011;12957;49.434;8.684;2023-08-01T13:26:58;1.70;;;1.60;;
24897;SDS011;12957;49.434;8.684;2023-08-01T13:29:23;1.70;;;1.60;;
24897;SDS011;12957;49.434;8.684;2023-08-01T13:31:49;1.17;;;1.17;;
24897;SDS011;12957;49.434;8.684;2023-08-01T13:34:14;1.77;;;1.55;;
24897;SDS011;12957;49.434;8.684;2023-08-01T13:36:40;2.00;;;1.40;;
24897;SDS011;12957;49.434;8.684;2023-08-01T13:39:06;2.05;;;1.50;;
24897;SDS011;12957;49.434;8.684;2023-08-01T13:41:31;3.58;;;1.52;;
24897;SDS011;12957;49.434;8.684;2023-08-01T13:43:58;2.75;;;1.52;;
24897;SDS011;12957;49.434;8.684;2023-08-01T13:46:23;2.00;;;1.52;;
24897;SDS011;12957;49.434;8.684;2023-08-01T13:48:49;4.93;;;1.55;;
24897;SDS011;12957;49.434;8.684;2023-08-01T13:51:14;1.95;;;1.73;;
24897;SDS011;12957;49.434;8.684;2023-08-01T13:53:40;2.38;;;1.70;;
24897;SDS011;12957;49.434;8.684;2023-08-01T13:56:11;2.25;;;1.52;;
24897;SDS011;12957;49.434;8.684;2023-08-01T13:58:40;6.13;;;1.63;;
24897;SDS011;12957;49.434;8.684;2023-08-01T14:01:06;1.45;;;1.35;;
24897;SDS011;12957;49.434;8.684;2023-08-01T14:03:33;3.25;;;1.65;;
24897;SDS011;12957;49.434;8.684;2023-08-01T14:06:03;2.72;;;1.40;;
24897;SDS011;12957;49.434;8.684;2023-08-01T14:08:32;4.00;;;1.50;;
24897;SDS011;12957;49.434;8.684;2023-08-01T14:10:57;2.83;;;1.52;;
24897;SDS011;12957;49.434;8.684;2023-08-01T14:13:23;9.27;;;1.40;;
24897;SDS011;12957;49.434;8.684;2023-08-01T14:15:48;1.75;;;1.40;;
24897;SDS011;12957;49.434;8.684;2023-08-01T14:18:14;3.53;;;1.38;;
24897;SDS011;12957;49.434;8.684;2023-08-01T14:20:39;5.40;;;1.50;;
24897;SDS011;12957;49.434;8.684;2023-08-01T14:23:05;2.53;;;1.52;;
24897;SDS011;12957;49.434;8.684;2023-08-01T14:25:30;5.63;;;1.48;;
24897;SDS011;12957;49.434;8.684;2023-08-01T14:27:56;1.60;;;1.42;;
24897;SDS011;12957;49.434;8.684;2023-08-01T14:30:21;5.10;;;1.70;;
24897;SDS011;12957;49.434;8.684;2023-08-01T14:32:47;2.20;;;1.50;;
24897;SDS011;12957;49.434;8.684;2023-08-01T14:35:12;4.90;;;1.48;;
24897;SDS011;12957;49.434;8.684;2023-08-01T14:37:38;1.95;;;1.27;;
24897;SDS011;12957;49.434;8.684;2023-08-01T14:40:04;3.08;;;1.50;;
24897;SDS011;12957;49.434;8.684;2023-08-01T14:42:30;2.10;;;1.65;;
24897;SDS011;12957;49.434;8.684;2023-08-01T14:44:55;2.90;;;1.35;;